Time;durP1;ratioP1;P1;durP2;ratioP2;P2;SDS_P1;SDS_P2;PMS_P1;PMS_P2;Temp;Humidity;BMP_temperature;BMP_pressure;BME280_temperature;BME280_humidity;BME280_pressure;Samples;Min_cycle;Max_cycle;Signal;HPM_P1;HPM_P2
2021/03/26 00:00:58;;;;;;;107.10;54.50;;;10.30;99.90;;;;;;5072760;28;20020;-45
2021/03/26 00:03:27;;;;;;;114.10;60.00;;;10.30;99.90;;;;;;5091312;28;20032;-47
2021/03/26 00:06:04;;;;;;;107.97;57.75;;;10.30;99.90;;;;;;5090523;28;20062;-44
2021/03/26 00:08:29;;;;;;;106.93;55.80;;;10.30;99.90;;;;;;5091055;28;20016;-44
2021/03/26 00:10:56;;;;;;;100.00;54.88;;;10.30;99.90;;;;;;5090419;28;20448;-44
2021/03/26 00:13:22;;;;;;;89.85;49.97;;;10.30;99.90;;;;;;5090980;28;20024;-45
2021/03/26 00:15:47;;;;;;;91.80;50.78;;;10.30;99.90;;;;;;5090184;28;20028;-44
2021/03/26 00:18:13;;;;;;;95.40;50.42;;;10.30;99.90;;;;;;5090568;28;20027;-45
2021/03/26 00:20:38;;;;;;;84.47;50.10;;;10.20;99.90;;;;;;5090682;28;20024;-45
2021/03/26 00:23:06;;;;;;;91.82;50.20;;;10.20;99.90;;;;;;5090233;28;20032;-45
2021/03/26 00:25:32;;;;;;;84.43;48.03;;;10.20;99.90;;;;;;5089674;28;20025;-46
2021/03/26 00:27:57;;;;;;;83.57;47.00;;;10.20;99.90;;;;;;5090421;28;20027;-45
2021/03/26 00:30:23;;;;;;;86.30;47.58;;;10.20;99.90;;;;;;5090210;28;20528;-45
2021/03/26 00:32:49;;;;;;;88.32;46.97;;;10.10;99.90;;;;;;5072309;28;20028;-45
2021/03/26 00:35:17;;;;;;;91.32;49.65;;;10.10;99.90;;;;;;5090286;28;20156;-44
2021/03/26 00:37:43;;;;;;;92.00;50.50;;;10.10;99.90;;;;;;5090686;28;20438;-47
2021/03/26 00:40:11;;;;;;;84.32;45.28;;;10.10;99.90;;;;;;5071774;28;20106;-47
2021/03/26 00:42:37;;;;;;;89.88;49.92;;;10.10;99.90;;;;;;5090273;28;20158;-45
2021/03/26 00:45:05;;;;;;;104.22;53.30;;;10.10;99.90;;;;;;5089711;28;20030;-45
2021/03/26 00:47:30;;;;;;;97.43;51.85;;;10.10;99.90;;;;;;5090032;28;20039;-48
2021/03/26 00:49:56;;;;;;;96.18;51.45;;;10.10;99.90;;;;;;5090177;28;20028;-44
2021/03/26 00:52:21;;;;;;;90.38;49.33;;;10.20;99.90;;;;;;5089909;28;20631;-48
2021/03/26 00:54:47;;;;;;;104.93;54.35;;;10.20;99.90;;;;;;5089555;28;20034;-45
2021/03/26 00:57:12;;;;;;;92.80;50.17;;;10.10;99.90;;;;;;5089244;28;20062;-46
2021/03/26 00:59:38;;;;;;;94.75;52.55;;;10.10;99.90;;;;;;5089901;28;20126;-44
2021/03/26 01:02:03;;;;;;;103.53;54.97;;;10.10;99.90;;;;;;5071540;28;20028;-45
2021/03/26 01:04:29;;;;;;;97.50;53.20;;;10.10;99.90;;;;;;5089880;28;20035;-45
2021/03/26 01:06:54;;;;;;;94.10;53.10;;;10.10;99.90;;;;;;5089299;28;20115;-45
2021/03/26 01:09:20;;;;;;;93.10;52.17;;;10.10;99.90;;;;;;5089711;28;20028;-45
2021/03/26 01:11:45;;;;;;;95.40;52.78;;;10.10;99.90;;;;;;5071649;28;20024;-45
2021/03/26 01:14:15;;;;;;;96.78;49.83;;;10.10;99.90;;;;;;5089646;28;20031;-44
2021/03/26 01:16:42;;;;;;;93.20;52.30;;;10.10;99.90;;;;;;5088813;28;20036;-46
2021/03/26 01:19:10;;;;;;;100.97;53.13;;;10.10;99.90;;;;;;5089502;28;20032;-44
2021/03/26 01:21:37;;;;;;;91.60;48.10;;;10.10;99.90;;;;;;5089485;28;20559;-45
2021/03/26 01:24:05;;;;;;;94.38;50.08;;;10.00;99.90;;;;;;5089152;28;20378;-45
2021/03/26 01:26:31;;;;;;;87.30;48.80;;;10.00;99.90;;;;;;5088478;28;20028;-45
2021/03/26 01:28:57;;;;;;;93.15;50.80;;;10.00;99.90;;;;;;5089075;28;20034;-46
2021/03/26 01:31:23;;;;;;;101.25;52.45;;;10.00;99.90;;;;;;5089412;28;20027;-46
2021/03/26 01:33:49;;;;;;;108.45;55.42;;;10.00;99.90;;;;;;5089677;28;20028;-45
2021/03/26 01:36:15;;;;;;;105.35;53.92;;;10.10;99.90;;;;;;5088714;28;20409;-48
2021/03/26 01:38:41;;;;;;;95.68;50.55;;;10.00;99.90;;;;;;5088798;28;20167;-45
2021/03/26 01:41:31;;;;;;;91.68;50.58;;;10.00;99.90;;;;;;5089208;28;20543;-44
2021/03/26 01:43:57;;;;;;;93.45;50.40;;;10.00;99.90;;;;;;5089236;28;20123;-46
2021/03/26 01:46:23;;;;;;;103.55;54.97;;;10.00;99.90;;;;;;5088509;28;20458;-44
2021/03/26 01:48:52;;;;;;;118.47;58.35;;;10.00;99.90;;;;;;5089065;28;20024;-46
2021/03/26 01:51:49;;;;;;;110.75;56.58;;;9.90;99.90;;;;;;5089152;28;20031;-45
2021/03/26 01:54:20;;;;;;;110.25;57.55;;;9.90;99.90;;;;;;5088224;28;20074;-44
2021/03/26 01:56:46;;;;;;;104.43;56.42;;;9.90;99.90;;;;;;5088526;28;20544;-46
2021/03/26 01:59:12;;;;;;;101.03;54.80;;;9.90;99.90;;;;;;5076115;28;20116;-48
2021/03/26 02:01:43;;;;;;;93.40;52.30;;;9.90;99.90;;;;;;5089018;28;20021;-45
2021/03/26 02:04:12;;;;;;;90.75;51.00;;;9.90;99.90;;;;;;5088681;28;20036;-46
2021/03/26 02:06:46;;;;;;;89.53;49.25;;;9.90;99.90;;;;;;5088184;28;20036;-44
2021/03/26 02:09:28;;;;;;;87.93;48.30;;;9.90;99.90;;;;;;5088270;28;20024;-47
2021/03/26 02:12:15;;;;;;;83.97;47.70;;;9.80;99.90;;;;;;5088238;28;20509;-46
2021/03/26 02:14:46;;;;;;;89.63;48.97;;;9.80;99.90;;;;;;5088241;28;20028;-44
2021/03/26 02:17:14;;;;;;;;;;;9.80;99.90;;;;;;5088521;28;20020;-45
2021/03/26 02:19:50;;;;;;;87.45;45.58;;;9.80;99.90;;;;;;5088657;28;20040;-46
2021/03/26 02:22:17;;;;;;;100.97;51.55;;;9.80;99.90;;;;;;5088428;28;20024;-45
2021/03/26 02:24:44;;;;;;;104.30;55.38;;;9.70;99.90;;;;;;5087787;28;20571;-44
2021/03/26 02:27:18;;;;;;;97.25;52.30;;;9.70;99.90;;;;;;5086791;28;20020;-45
2021/03/26 02:29:44;;;;;;;116.55;60.67;;;9.70;99.90;;;;;;5087806;28;20067;-46
2021/03/26 02:32:32;;;;;;;110.53;58.42;;;9.80;99.90;;;;;;5088183;28;20429;-45
2021/03/26 02:35:18;;;;;;;108.28;57.95;;;9.80;99.90;;;;;;5087524;28;20477;-45
2021/03/26 02:37:49;;;;;;;100.65;56.17;;;9.80;99.90;;;;;;5088305;28;20039;-46
2021/03/26 02:40:49;;;;;;;111.20;57.20;;;9.80;99.90;;;;;;5088012;28;20526;-45
2021/03/26 02:43:22;;;;;;;89.10;49.03;;;9.80;99.90;;;;;;5069980;28;20120;-46
2021/03/26 02:46:13;;;;;;;105.13;57.28;;;9.80;99.90;;;;;;5087658;28;20550;-48
2021/03/26 02:48:45;;;;;;;96.70;51.35;;;9.80;99.90;;;;;;5087900;28;20035;-48
2021/03/26 02:51:48;;;;;;;109.47;57.38;;;9.80;99.90;;;;;;5087759;28;20063;-45
2021/03/26 02:54:36;;;;;;;101.88;56.88;;;9.80;99.90;;;;;;5083038;28;20116;-46
2021/03/26 02:57:07;;;;;;;106.15;58.03;;;9.80;99.90;;;;;;5087211;28;20023;-45
2021/03/26 02:59:44;;;;;;;101.78;55.40;;;9.80;99.90;;;;;;5087650;28;20024;-44
2021/03/26 03:02:12;;;;;;;96.88;52.65;;;9.80;99.90;;;;;;5088129;28;20026;-44
2021/03/26 03:04:53;;;;;;;88.95;51.42;;;9.80;99.90;;;;;;5089609;28;20031;-43
2021/03/26 03:07:27;;;;;;;100.97;51.67;;;9.80;99.90;;;;;;5084801;28;20469;-45
2021/03/26 03:10:00;;;;;;;90.05;50.38;;;9.80;99.90;;;;;;5083991;28;20379;-45
2021/03/26 03:12:29;;;;;;;87.90;49.55;;;9.80;99.90;;;;;;5085252;28;20032;-45
2021/03/26 03:15:09;;;;;;;85.07;47.08;;;9.80;99.90;;;;;;5096178;28;20031;-44
2021/03/26 03:17:40;;;;;;;84.43;46.92;;;9.80;99.90;;;;;;5092535;28;20020;-44
2021/03/26 03:20:33;;;;;;;81.82;46.42;;;9.80;99.90;;;;;;5084671;28;20032;-45
2021/03/26 03:23:11;;;;;;;87.10;48.15;;;9.80;99.90;;;;;;5086564;28;20180;-44
2021/03/26 03:25:37;;;;;;;80.68;46.20;;;9.80;99.90;;;;;;5089067;28;20366;-45
2021/03/26 03:28:21;;;;;;;95.55;51.28;;;9.80;99.90;;;;;;5096185;28;20531;-45
2021/03/26 03:31:17;;;;;;;72.10;43.65;;;9.80;99.90;;;;;;5091683;28;20489;-45
2021/03/26 03:33:56;;;;;;;86.90;46.88;;;9.80;99.90;;;;;;5091475;28;20051;-47
2021/03/26 03:36:28;;;;;;;77.20;45.55;;;9.80;99.90;;;;;;5091017;28;20028;-46
2021/03/26 03:39:26;;;;;;;80.82;43.47;;;9.70;99.90;;;;;;5091599;28;20081;-44
2021/03/26 03:42:11;;;;;;;74.80;43.10;;;9.70;99.90;;;;;;5073633;28;20120;-46
2021/03/26 03:45:08;;;;;;;76.90;43.88;;;9.70;99.90;;;;;;5091637;28;20115;-43
2021/03/26 03:47:55;;;;;;;72.90;41.97;;;9.70;99.90;;;;;;5091559;28;20020;-45
2021/03/26 03:50:23;;;;;;;71.65;40.10;;;9.70;99.90;;;;;;5091296;28;20028;-46
2021/03/26 03:53:02;;;;;;;76.88;43.47;;;9.60;99.90;;;;;;5091299;28;20024;-45
2021/03/26 03:56:02;;;;;;;83.03;46.65;;;9.60;99.90;;;;;;5090080;28;20028;-46
2021/03/26 03:58:38;;;;;;;83.65;46.67;;;9.60;99.90;;;;;;5089319;28;20039;-45
2021/03/26 04:01:34;;;;;;;94.70;53.20;;;9.60;99.90;;;;;;5091105;28;20106;-45
2021/03/26 04:04:17;;;;;;;90.57;50.58;;;9.60;99.90;;;;;;5091010;28;20096;-43
2021/03/26 04:06:59;;;;;;;85.47;50.05;;;9.60;99.90;;;;;;5090339;28;20071;-45
2021/03/26 04:09:31;;;;;;;86.43;47.40;;;9.50;99.90;;;;;;5090880;28;20062;-46
2021/03/26 04:12:01;;;;;;;80.05;45.10;;;9.40;99.90;;;;;;5090956;28;20344;-44
2021/03/26 04:14:33;;;;;;;75.90;42.72;;;9.40;99.90;;;;;;5090514;28;20042;-45
2021/03/26 04:17:05;;;;;;;79.20;44.03;;;9.30;99.90;;;;;;5090330;28;20476;-45
2021/03/26 04:19:43;;;;;;;75.50;43.55;;;9.30;99.90;;;;;;5090461;28;20043;-45
2021/03/26 04:22:13;;;;;;;78.95;45.03;;;9.20;99.90;;;;;;5090605;28;20388;-45
2021/03/26 04:24:49;;;;;;;78.45;43.92;;;9.20;99.90;;;;;;5089934;28;20485;-45
2021/03/26 04:27:27;;;;;;;73.50;39.92;;;9.10;99.90;;;;;;5090372;28;20031;-44
2021/03/26 04:30:19;;;;;;;81.07;44.35;;;9.00;99.90;;;;;;5071989;28;20066;-46
2021/03/26 04:32:46;;;;;;;68.60;40.60;;;8.90;99.90;;;;;;5090294;28;20024;-46
2021/03/26 04:35:13;;;;;;;71.50;39.85;;;8.90;99.90;;;;;;5089446;28;20593;-46
2021/03/26 04:37:58;;;;;;;96.28;52.88;;;8.80;99.90;;;;;;5090235;28;20051;-44
2021/03/26 04:40:32;;;;;;;98.68;51.30;;;8.80;99.90;;;;;;5089494;28;20676;-44
2021/03/26 04:43:19;;;;;;;93.47;50.60;;;8.80;99.90;;;;;;5090767;28;20026;-45
2021/03/26 04:46:11;;;;;;;99.57;52.10;;;8.80;99.90;;;;;;5089717;28;20028;-44
2021/03/26 04:48:46;;;;;;;108.20;54.60;;;8.80;99.90;;;;;;5090149;28;20482;-43
2021/03/26 04:51:16;;;;;;;100.28;53.60;;;8.80;99.90;;;;;;5071830;28;20024;-46
2021/03/26 04:53:52;;;;;;;105.63;54.05;;;8.80;99.90;;;;;;5090063;28;20513;-44
2021/03/26 04:56:25;;;;;;;105.45;52.88;;;8.80;99.90;;;;;;5088965;28;20031;-46
2021/03/26 04:59:00;;;;;;;111.60;55.78;;;8.70;99.90;;;;;;5089762;28;20028;-44
2021/03/26 05:01:27;;;;;;;110.93;56.00;;;8.70;99.90;;;;;;5090098;28;20028;-44
2021/03/26 05:04:05;;;;;;;104.68;53.72;;;8.70;99.90;;;;;;5089900;28;20673;-45
2021/03/26 05:06:36;;;;;;;102.68;53.38;;;8.70;99.90;;;;;;5089450;28;20032;-45
2021/03/26 05:09:23;;;;;;;107.68;55.95;;;8.60;99.90;;;;;;5090032;28;20028;-43
2021/03/26 05:12:02;;;;;;;109.85;53.13;;;8.60;99.90;;;;;;5089401;28;20382;-44
2021/03/26 05:14:34;;;;;;;107.72;55.67;;;8.60;99.90;;;;;;5089533;28;20209;-44
2021/03/26 05:17:17;;;;;;;105.53;56.53;;;8.50;99.90;;;;;;5088925;28;20017;-44
2021/03/26 05:20:01;;;;;;;116.40;58.47;;;8.40;99.90;;;;;;5089697;28;20012;-45
2021/03/26 05:22:45;;;;;;;108.60;56.85;;;8.50;99.90;;;;;;5089909;28;20025;-44
2021/03/26 05:25:28;;;;;;;112.95;57.88;;;8.40;99.90;;;;;;5053522;28;20493;-45
2021/03/26 05:27:55;;;;;;;112.32;57.55;;;8.30;99.90;;;;;;5071720;28;20085;-44
2021/03/26 05:30:39;;;;;;;111.57;58.63;;;8.20;99.90;;;;;;5089361;28;20034;-44
2021/03/26 05:33:20;;;;;;;111.80;56.22;;;8.30;99.90;;;;;;5089674;28;20028;-44
2021/03/26 05:35:55;;;;;;;105.40;55.25;;;8.30;99.90;;;;;;5089054;28;20111;-44
2021/03/26 05:38:27;;;;;;;101.30;53.50;;;8.30;99.90;;;;;;5089343;28;20055;-44
2021/03/26 05:41:25;;;;;;;112.45;56.60;;;8.30;99.90;;;;;;5088809;28;20020;-43
2021/03/26 05:44:09;;;;;;;112.38;56.08;;;8.40;99.90;;;;;;5088957;28;20068;-43
2021/03/26 05:46:57;;;;;;;113.65;57.70;;;8.40;99.90;;;;;;5088307;28;20028;-47
2021/03/26 05:49:45;;;;;;;123.55;57.60;;;8.40;99.90;;;;;;5094982;28;20032;-44
2021/03/26 05:52:36;;;;;;;111.43;58.53;;;8.40;99.90;;;;;;5092653;28;20024;-44
2021/03/26 05:55:21;;;;;;;104.60;54.47;;;8.40;99.90;;;;;;5086396;28;20027;-44
2021/03/26 05:58:11;;;;;;;113.45;59.15;;;8.40;99.90;;;;;;5084229;28;20051;-46
2021/03/26 06:01:00;;;;;;;109.63;57.50;;;8.40;99.90;;;;;;5092953;28;20016;-45
2021/03/26 06:03:57;;;;;;;102.28;54.45;;;8.50;99.90;;;;;;5089044;28;20024;-47
2021/03/26 06:06:47;;;;;;;104.75;54.60;;;8.50;99.90;;;;;;5080357;28;20127;-47
2021/03/26 06:09:24;;;;;;;126.50;61.60;;;8.60;99.90;;;;;;5085634;28;20529;-46
2021/03/26 06:12:19;;;;;;;117.28;59.90;;;8.70;99.90;;;;;;5080675;28;20016;-44
2021/03/26 06:15:25;;;;;;;111.68;59.50;;;8.70;99.90;;;;;;5085731;28;20040;-45
2021/03/26 06:18:21;;;;;;;108.25;56.47;;;8.80;99.90;;;;;;5068099;28;20031;-45
2021/03/26 06:21:16;;;;;;;111.97;59.45;;;8.80;99.90;;;;;;5068575;28;20025;-45
2021/03/26 06:24:02;;;;;;;101.80;54.75;;;9.00;99.90;;;;;;5074760;28;20047;-44
2021/03/26 06:26:44;;;;;;;113.60;58.95;;;9.00;99.90;;;;;;5085918;28;20031;-44
2021/03/26 06:29:45;;;;;;;111.82;59.55;;;9.10;99.90;;;;;;5088285;28;20024;-44
2021/03/26 06:32:43;;;;;;;107.65;57.10;;;9.20;99.90;;;;;;5088990;28;20085;-43
2021/03/26 06:35:51;;;;;;;112.20;60.20;;;9.20;99.90;;;;;;5068184;28;20036;-44
2021/03/26 06:38:30;;;;;;;122.03;60.60;;;9.30;99.90;;;;;;5068628;28;20048;-43
2021/03/26 06:41:24;;;;;;;110.70;57.60;;;9.20;99.90;;;;;;5068013;28;20539;-43
2021/03/26 06:44:09;;;;;;;117.68;60.45;;;9.20;99.90;;;;;;5079237;28;20020;-45
2021/03/26 06:46:54;;;;;;;113.43;58.83;;;9.10;99.90;;;;;;5085184;28;20032;-44
2021/03/26 06:49:48;;;;;;;114.10;59.85;;;9.10;99.90;;;;;;5069722;28;20030;-44
2021/03/26 06:52:45;;;;;;;105.00;55.33;;;9.20;99.90;;;;;;5088827;28;20505;-48
2021/03/26 06:55:32;;;;;;;107.30;55.80;;;9.30;99.90;;;;;;5072176;28;20028;-47
2021/03/26 06:58:19;;;;;;;104.28;56.03;;;9.40;99.90;;;;;;5089070;28;20020;-47
2021/03/26 07:01:03;;;;;;;109.72;55.13;;;9.40;99.90;;;;;;5089024;28;20136;-45
2021/03/26 07:03:53;;;;;;;115.28;57.63;;;9.40;99.90;;;;;;5089077;28;20056;-45
2021/03/26 07:06:44;;;;;;;100.77;53.87;;;9.40;99.90;;;;;;5088704;28;20024;-45
2021/03/26 07:09:46;;;;;;;99.47;55.38;;;9.50;99.90;;;;;;5089085;28;20250;-44
2021/03/26 07:12:42;;;;;;;93.00;52.83;;;9.50;99.90;;;;;;5088320;28;20466;-46
2021/03/26 07:15:16;;;;;;;103.00;56.10;;;9.50;99.90;;;;;;5087929;28;20532;-45
2021/03/26 07:17:56;;;;;;;99.57;54.28;;;9.60;99.90;;;;;;5088750;28;20101;-44
2021/03/26 07:20:32;;;;;;;98.53;54.88;;;9.60;99.90;;;;;;5088390;28;20028;-45
2021/03/26 07:23:29;;;;;;;92.82;48.50;;;9.70;99.90;;;;;;5088631;28;20104;-45
2021/03/26 07:26:28;;;;;;;96.70;54.08;;;9.80;99.90;;;;;;5087060;28;20062;-44
2021/03/26 07:29:30;;;;;;;92.95;49.95;;;9.90;99.90;;;;;;5088522;28;20028;-43
2021/03/26 07:32:29;;;;;;;88.15;47.30;;;10.10;99.90;;;;;;5088698;28;20073;-44
2021/03/26 07:35:23;;;;;;;86.63;47.30;;;10.20;99.90;;;;;;5087703;28;20042;-45
2021/03/26 07:38:12;;;;;;;80.20;46.20;;;10.40;99.90;;;;;;5088536;28;20020;-44
2021/03/26 07:41:02;;;;;;;84.82;44.78;;;10.60;99.90;;;;;;5088286;28;20059;-45
2021/03/26 07:44:05;;;;;;;81.35;43.75;;;10.80;99.90;;;;;;5070196;28;20028;-43
2021/03/26 07:46:49;;;;;;;74.65;43.78;;;10.90;99.90;;;;;;5069527;28;20068;-45
2021/03/26 07:49:25;;;;;;;74.65;40.42;;;11.10;99.90;;;;;;5088446;28;20107;-44
2021/03/26 07:52:09;;;;;;;69.05;39.85;;;11.30;99.90;;;;;;5088413;28;20020;-45
2021/03/26 07:54:56;;;;;;;76.20;41.67;;;11.50;99.90;;;;;;5088646;28;20255;-45
2021/03/26 07:57:27;;;;;;;77.35;41.45;;;11.60;99.90;;;;;;5088347;28;20544;-45
2021/03/26 08:00:18;;;;;;;58.53;35.35;;;11.70;99.90;;;;;;5088352;28;20078;-44
2021/03/26 08:03:14;;;;;;;65.53;35.92;;;12.10;99.90;;;;;;5088323;28;20097;-44
2021/03/26 08:06:13;;;;;;;70.93;36.92;;;12.20;99.90;;;;;;5087581;28;20032;-43
2021/03/26 08:09:08;;;;;;;62.67;35.58;;;12.50;99.90;;;;;;5088237;28;20489;-43
2021/03/26 08:12:03;;;;;;;59.97;35.70;;;12.70;99.90;;;;;;5089897;28;20036;-44
2021/03/26 08:14:40;;;;;;;57.55;35.97;;;12.90;99.90;;;;;;5091759;28;20384;-44
2021/03/26 08:17:33;;;;;;;58.30;36.28;;;13.00;99.90;;;;;;5091415;28;20472;-44
2021/03/26 08:20:29;;;;;;;53.25;33.50;;;13.20;99.90;;;;;;5092005;28;20255;-44
2021/03/26 08:23:14;;;;;;;51.58;33.25;;;13.40;99.90;;;;;;5091661;28;20023;-45
2021/03/26 08:25:55;;;;;;;59.15;36.92;;;13.90;99.90;;;;;;5072673;28;20074;-46
2021/03/26 08:28:54;;;;;;;58.55;39.33;;;13.80;99.90;;;;;;5091770;28;20047;-46
2021/03/26 08:31:49;;;;;;;59.65;37.35;;;14.20;99.90;;;;;;5091617;28;20082;-43
2021/03/26 08:34:30;;;;;;;61.60;38.72;;;14.80;99.90;;;;;;5091938;28;20024;-43
2021/03/26 08:37:13;;;;;;;54.45;35.30;;;15.10;99.10;;;;;;5091139;28;20028;-47
2021/03/26 08:39:50;;;;;;;52.13;36.88;;;17.20;93.20;;;;;;5091544;28;20448;-46
2021/03/26 08:42:38;;;;;;;51.55;36.38;;;17.50;82.70;;;;;;5091102;28;20500;-43
2021/03/26 08:45:12;;;;;;;50.65;34.65;;;17.00;81.70;;;;;;5090603;28;20035;-45
2021/03/26 08:47:51;;;;;;;53.75;35.38;;;16.70;84.70;;;;;;5089184;28;20024;-45
2021/03/26 08:50:54;;;;;;;48.97;33.47;;;17.20;82.30;;;;;;5071912;28;20073;-44
2021/03/26 08:53:52;;;;;;;52.35;35.83;;;17.70;78.80;;;;;;5084003;28;20056;-45
2021/03/26 08:56:25;;;;;;;44.67;31.90;;;17.20;77.90;;;;;;5083761;28;20026;-44
2021/03/26 08:59:06;;;;;;;46.72;32.80;;;18.40;74.60;;;;;;5072317;28;20440;-45
2021/03/26 09:02:01;;;;;;;42.20;30.15;;;19.00;70.60;;;;;;5088266;28;20035;-46
2021/03/26 09:04:48;;;;;;;38.00;28.38;;;20.40;66.60;;;;;;5082738;28;20020;-44
2021/03/26 09:07:47;;;;;;;38.50;30.23;;;20.80;59.80;;;;;;5083616;28;20037;-44
2021/03/26 09:10:33;;;;;;;38.95;28.40;;;20.00;60.00;;;;;;5085939;28;20020;-45
2021/03/26 09:13:26;;;;;;;36.25;27.17;;;20.40;58.00;;;;;;5090319;28;20447;-44
2021/03/26 09:15:56;;;;;;;38.55;27.58;;;20.50;56.50;;;;;;5089584;28;20374;-46
2021/03/26 09:18:54;;;;;;;30.92;24.63;;;20.80;56.90;;;;;;5089881;28;20028;-44
2021/03/26 09:21:48;;;;;;;32.78;24.33;;;20.20;56.00;;;;;;5083599;28;20178;-45
2021/03/26 09:24:39;;;;;;;37.13;25.98;;;20.20;56.60;;;;;;5086913;28;20521;-44
2021/03/26 09:27:27;;;;;;;37.80;28.52;;;21.10;55.60;;;;;;5082666;28;20077;-45
2021/03/26 09:30:14;;;;;;;36.17;25.08;;;20.30;55.00;;;;;;5063246;28;20067;-44
2021/03/26 09:33:15;;;;;;;29.10;22.58;;;20.30;55.80;;;;;;5087224;28;20066;-45
2021/03/26 09:35:53;;;;;;;28.13;22.42;;;22.40;52.90;;;;;;5003795;28;20041;-47
2021/03/26 09:38:25;;;;;;;31.10;22.63;;;22.40;47.90;;;;;;5076064;28;20039;-47
2021/03/26 09:41:07;;;;;;;27.20;18.92;;;21.20;50.80;;;;;;5089005;28;20517;-45
2021/03/26 09:43:54;;;;;;;24.63;17.60;;;22.70;48.50;;;;;;5088960;28;20050;-45
2021/03/26 09:46:39;;;;;;;18.95;14.98;;;23.70;47.10;;;;;;5088628;28;20020;-45
2021/03/26 09:49:39;;;;;;;24.13;18.52;;;24.20;47.40;;;;;;5087394;28;20027;-46
2021/03/26 09:52:14;;;;;;;;;;;26.40;42.30;;;;;;5069504;28;20640;-45
2021/03/26 09:54:43;;;;;;;24.63;21.02;;;26.20;40.50;;;;;;5068046;28;20081;-45
2021/03/26 09:57:31;;;;;;;24.30;19.73;;;24.80;40.70;;;;;;5088375;28;20016;-45
2021/03/26 09:59:59;;;;;;;24.95;17.83;;;24.60;43.10;;;;;;5088904;28;20020;-45
2021/03/26 10:02:56;;;;;;;27.13;18.65;;;25.30;43.10;;;;;;5089454;28;20016;-45
2021/03/26 10:05:55;;;;;;;23.60;19.00;;;25.40;40.60;;;;;;5086424;28;20110;-44
2021/03/26 10:11:42;;;;;;;17.92;16.02;;;25.80;42.40;;;;;;5088290;28;20146;-44
2021/03/26 10:14:17;;;;;;;23.63;20.10;;;25.90;40.80;;;;;;5089165;28;20444;-45
2021/03/26 10:17:15;;;;;;;22.10;18.63;;;25.60;41.80;;;;;;5088450;28;20187;-44
2021/03/26 10:19:49;;;;;;;24.25;21.52;;;25.70;41.80;;;;;;5088957;28;20572;-44
2021/03/26 10:22:51;;;;;;;26.08;22.00;;;25.50;42.10;;;;;;5088881;28;20497;-47
2021/03/26 10:25:26;;;;;;;32.10;25.75;;;25.60;39.50;;;;;;5059200;28;20036;-46
2021/03/26 10:28:12;;;;;;;28.42;25.30;;;25.30;39.40;;;;;;5088681;28;20032;-45
2021/03/26 10:30:42;;;;;;;35.05;28.52;;;23.00;43.10;;;;;;5088040;28;20047;-44
2021/03/26 10:33:14;;;;;;;38.47;28.85;;;20.40;49.10;;;;;;5088530;28;20016;-46
2021/03/26 10:35:56;;;;;;;35.08;26.20;;;18.40;54.90;;;;;;5088129;28;20420;-44
2021/03/26 10:38:48;;;;;;;42.53;30.90;;;19.60;53.90;;;;;;5088325;28;20554;-45
2021/03/26 10:41:34;;;;;;;39.83;30.40;;;18.40;53.90;;;;;;5088510;28;20031;-44
2021/03/26 10:44:18;;;;;;;40.00;27.13;;;18.50;56.20;;;;;;5088870;28;20103;-43
2021/03/26 10:46:49;;;;;;;37.95;26.42;;;18.40;57.30;;;;;;5088050;28;20392;-44
2021/03/26 10:49:21;;;;;;;38.25;27.10;;;19.20;55.70;;;;;;5088405;28;20030;-44
2021/03/26 10:51:56;;;;;;;35.15;26.48;;;19.40;54.10;;;;;;5070097;28;20166;-45
2021/03/26 10:54:47;;;;;;;34.33;26.45;;;19.10;53.60;;;;;;5088693;28;20404;-45
2021/03/26 10:57:37;;;;;;;33.72;24.95;;;19.40;55.20;;;;;;5067615;28;20024;-46
2021/03/26 11:00:28;;;;;;;30.88;23.13;;;20.20;53.30;;;;;;5067946;28;20013;-44
2021/03/26 11:03:02;;;;;;;33.95;23.33;;;21.40;54.10;;;;;;5068245;28;20032;-44
2021/03/26 11:05:36;;;;;;;32.17;24.63;;;21.90;50.40;;;;;;5068053;28;20028;-45
2021/03/26 11:08:02;;;;;;;30.40;24.55;;;21.40;50.00;;;;;;5067701;28;20024;-47
2021/03/26 11:10:51;;;;;;;31.77;25.10;;;21.10;51.00;;;;;;5068021;28;20016;-44
2021/03/26 11:13:50;;;;;;;39.58;26.13;;;21.30;50.60;;;;;;5066882;28;20033;-45
2021/03/26 11:16:23;;;;;;;31.25;21.00;;;20.90;49.90;;;;;;5067491;28;20109;-46
2021/03/26 11:19:19;;;;;;;30.25;22.92;;;22.00;50.00;;;;;;5068048;28;20048;-46
2021/03/26 11:21:47;;;;;;;25.95;19.20;;;23.40;46.70;;;;;;5052352;28;20032;-45
2021/03/26 11:24:14;;;;;;;24.17;18.90;;;24.50;44.90;;;;;;5068228;28;20052;-45
2021/03/26 11:26:46;;;;;;;25.45;19.50;;;23.80;43.70;;;;;;5083002;28;20024;-43
2021/03/26 11:29:20;;;;;;;26.67;18.48;;;21.40;46.10;;;;;;5069304;28;20123;-45
2021/03/26 11:31:52;;;;;;;26.75;18.35;;;20.80;48.80;;;;;;5087983;28;20115;-44
2021/03/26 11:34:33;;;;;;;28.17;20.40;;;19.90;50.80;;;;;;5087919;28;20115;-45
2021/03/26 11:37:07;;;;;;;28.23;20.50;;;18.50;53.10;;;;;;5086767;28;20085;-44
2021/03/26 11:40:00;;;;;;;30.75;21.17;;;18.00;55.20;;;;;;5088011;28;20019;-45
2021/03/26 11:42:36;;;;;;;29.17;19.63;;;17.30;56.80;;;;;;5087794;28;20028;-47
2021/03/26 11:45:34;;;;;;;27.55;18.92;;;18.20;56.30;;;;;;5086861;28;20020;-44
2021/03/26 11:48:20;;;;;;;30.67;19.10;;;19.90;52.40;;;;;;5076004;28;20040;-45
2021/03/26 11:51:10;;;;;;;24.52;18.67;;;20.40;50.30;;;;;;5091506;28;20016;-44
2021/03/26 11:53:49;;;;;;;31.98;19.80;;;20.80;50.80;;;;;;5092049;28;20032;-47
2021/03/26 11:56:44;;;;;;;24.98;16.83;;;20.50;51.10;;;;;;5091170;28;20382;-44
2021/03/26 11:59:16;;;;;;;21.13;15.02;;;21.60;49.80;;;;;;5090561;28;20028;-47
2021/03/26 12:01:53;;;;;;;20.10;13.82;;;23.00;48.40;;;;;;5091809;28;20025;-45
2021/03/26 12:04:30;;;;;;;17.52;13.52;;;23.10;43.70;;;;;;5091619;28;20550;-45
2021/03/26 12:07:10;;;;;;;22.98;14.77;;;21.60;43.30;;;;;;5090660;28;20393;-44
2021/03/26 12:09:58;;;;;;;21.85;15.00;;;19.90;46.20;;;;;;5091760;28;20502;-44
2021/03/26 12:12:34;;;;;;;21.52;14.93;;;19.20;49.00;;;;;;5087658;28;20114;-44
2021/03/26 12:15:21;;;;;;;24.40;15.98;;;18.90;48.50;;;;;;5090329;28;20031;-44
2021/03/26 12:18:15;;;;;;;23.13;14.45;;;17.90;50.10;;;;;;5088700;28;20497;-45
2021/03/26 12:20:42;;;;;;;20.88;15.52;;;17.70;50.50;;;;;;5073220;28;20020;-44
2021/03/26 12:23:32;;;;;;;25.70;17.45;;;18.30;51.70;;;;;;5091482;28;20020;-47
2021/03/26 12:26:12;;;;;;;24.13;16.02;;;18.90;49.70;;;;;;5090864;28;20365;-45
2021/03/26 12:28:42;;;;;;;23.17;14.88;;;18.20;51.70;;;;;;5091000;28;20032;-47
2021/03/26 12:31:49;;;;;;;19.88;14.13;;;18.10;51.40;;;;;;5091298;28;20028;-44
2021/03/26 12:34:33;;;;;;;24.48;16.98;;;18.30;52.70;;;;;;5068590;28;20564;-45
2021/03/26 12:37:13;;;;;;;30.38;18.02;;;18.30;52.20;;;;;;5090278;28;20028;-44
2021/03/26 12:39:41;;;;;;;26.50;17.13;;;18.30;51.80;;;;;;5091181;28;20016;-48
2021/03/26 12:42:11;;;;;;;27.33;17.67;;;17.80;51.90;;;;;;5090750;28;20107;-45
2021/03/26 12:44:43;;;;;;;23.15;16.50;;;17.40;53.80;;;;;;5090922;28;20034;-44
2021/03/26 12:47:16;;;;;;;25.10;16.77;;;17.50;54.30;;;;;;5090680;28;20047;-44
2021/03/26 12:50:01;;;;;;;22.52;14.55;;;17.60;53.30;;;;;;5072741;28;20024;-46
2021/03/26 12:52:32;;;;;;;22.58;14.70;;;17.90;54.20;;;;;;5090888;28;20048;-46
2021/03/26 12:55:03;;;;;;;22.80;16.02;;;18.70;52.00;;;;;;5089569;28;20235;-47
2021/03/26 12:58:01;;;;;;;20.50;14.27;;;19.00;47.40;;;;;;5090040;28;20485;-44
2021/03/26 13:00:44;;;;;;;23.42;15.68;;;18.60;48.50;;;;;;5090775;28;20749;-44
2021/03/26 13:03:28;;;;;;;22.63;15.80;;;18.50;49.70;;;;;;5090700;28;20016;-46
2021/03/26 13:06:10;;;;;;;19.40;14.45;;;18.10;49.80;;;;;;5089572;28;20028;-46
2021/03/26 13:08:41;;;;;;;24.77;14.82;;;18.00;52.30;;;;;;5074107;28;20046;-44
2021/03/26 13:11:16;;;;;;;23.13;15.23;;;18.70;50.40;;;;;;5090540;28;20131;-43
2021/03/26 13:13:53;;;;;;;23.75;14.70;;;19.10;49.00;;;;;;5090130;28;20517;-45
2021/03/26 13:16:30;;;;;;;23.48;15.52;;;18.60;48.60;;;;;;5089938;28;20161;-44
2021/03/26 13:18:59;;;;;;;21.20;14.07;;;19.30;49.30;;;;;;5090393;28;20021;-45
2021/03/26 13:21:34;;;;;;;25.30;14.15;;;19.20;47.80;;;;;;5072181;28;20024;-44
2021/03/26 13:24:18;;;;;;;18.45;12.27;;;19.10;48.50;;;;;;5090248;28;20028;-44
2021/03/26 13:26:44;;;;;;;20.33;13.60;;;18.90;47.00;;;;;;5089481;28;20088;-46
2021/03/26 13:29:27;;;;;;;20.42;12.38;;;18.80;48.20;;;;;;5089951;28;20032;-45
2021/03/26 13:31:58;;;;;;;18.83;12.35;;;18.90;47.20;;;;;;5090130;28;20043;-46
2021/03/26 13:34:33;;;;;;;16.27;10.25;;;18.10;48.70;;;;;;5089276;28;20020;-45
2021/03/26 13:37:06;;;;;;;17.08;10.25;;;18.00;49.50;;;;;;5087353;28;20036;-45